createdAt,value
2017-06-29T00:00:41.027Z,99335.80
2017-06-29T00:03:09.802Z,99343.70
2017-06-29T00:05:38.167Z,99341.17
2017-06-29T00:08:06.501Z,99341.12
2017-06-29T00:10:35.189Z,99341.52
2017-06-29T00:13:03.582Z,99343.08
2017-06-29T00:15:31.907Z,99339.30
2017-06-29T00:18:00.614Z,99348.91
2017-06-29T00:20:28.939Z,99347.67
2017-06-29T00:22:57.280Z,99352.72
2017-06-29T00:25:25.947Z,99342.55
2017-06-29T00:27:54.551Z,99344.77
2017-06-29T00:30:22.878Z,99341.36
2017-06-29T00:32:51.638Z,99339.23
2017-06-29T00:35:19.983Z,99348.32
2017-06-29T00:37:48.305Z,99353.64
2017-06-29T00:40:16.966Z,99351.98
2017-06-29T00:42:45.306Z,99356.39
2017-06-29T00:45:13.641Z,99347.84
2017-06-29T00:47:42.468Z,99355.28
2017-06-29T00:50:10.856Z,99356.10
2017-06-29T00:52:39.256Z,99359.83
2017-06-29T00:55:08.169Z,99359.64
2017-06-29T00:57:36.550Z,99360.30
2017-06-29T01:00:04.908Z,99365.12
2017-06-29T01:02:33.528Z,99363.59
2017-06-29T01:05:01.857Z,99368.14
2017-06-29T01:07:30.211Z,99369.66
2017-06-29T01:09:59.669Z,99366.56
2017-06-29T01:12:28.003Z,99369.70
2017-06-29T01:14:57.127Z,99365.02
2017-06-29T01:17:26.349Z,99361.11
2017-06-29T01:19:54.680Z,99355.61
2017-06-29T01:22:23.005Z,99352.62
2017-06-29T01:24:51.645Z,99347.88
2017-06-29T01:27:20.754Z,99348.16
2017-06-29T01:29:49.846Z,99354.49
2017-06-29T01:32:18.619Z,99359.55
2017-06-29T01:34:46.984Z,99351.79
2017-06-29T01:37:15.321Z,99354.91
2017-06-29T01:39:44.281Z,99349.36
2017-06-29T01:42:12.622Z,99354.48
2017-06-29T01:44:40.960Z,99353.66
2017-06-29T01:47:09.595Z,99354.95
2017-06-29T01:49:37.933Z,99351.58
2017-06-29T01:52:06.271Z,99350.41
2017-06-29T01:54:34.926Z,99351.22
2017-06-29T01:57:03.276Z,99359.34
2017-06-29T01:59:31.612Z,99364.95
2017-06-29T02:02:01.629Z,99366.02
2017-06-29T02:04:29.967Z,99364.61
2017-06-29T02:06:58.281Z,99370.17
2017-06-29T02:09:27.905Z,99369.16
2017-06-29T02:11:56.253Z,99371.88
2017-06-29T02:14:24.615Z,99366.45
2017-06-29T02:16:53.287Z,99365.91
2017-06-29T02:19:21.624Z,99366.34
2017-06-29T02:21:49.958Z,99364.14
2017-06-29T02:24:18.850Z,99354.06
2017-06-29T02:26:47.175Z,99358.03
2017-06-29T02:29:16.269Z,99363.48
2017-06-29T02:31:46.305Z,99365.53
2017-06-29T02:34:14.645Z,99376.05
2017-06-29T02:36:42.962Z,99368.98
2017-06-29T02:39:11.613Z,99371.31
2017-06-29T02:41:39.937Z,99375.54
2017-06-29T02:44:08.274Z,99370.44
2017-06-29T02:46:37.320Z,99359.84
2017-06-29T02:49:05.657Z,99347.80
2017-06-29T02:51:33.979Z,99361.98
2017-06-29T02:54:02.621Z,99355.09
2017-06-29T02:56:30.957Z,99354.34
2017-06-29T02:58:59.285Z,99348.97
2017-06-29T03:01:28.061Z,99330.42
2017-06-29T03:03:56.400Z,99320.74
2017-06-29T03:06:24.743Z,99321.06
2017-06-29T03:08:53.681Z,99323.56
2017-06-29T03:11:22.026Z,99328.50
2017-06-29T03:13:50.362Z,99321.83
2017-06-29T03:16:19.774Z,99318.68
2017-06-29T03:18:48.113Z,99329.90
2017-06-29T03:21:16.453Z,99333.31
2017-06-29T03:23:45.130Z,99334.36
2017-06-29T03:26:13.453Z,99344.30
2017-06-29T03:28:41.796Z,99339.28
2017-06-29T03:31:10.888Z,99337.98
2017-06-29T03:33:39.240Z,99338.45
2017-06-29T03:36:08.336Z,99335.88
2017-06-29T03:38:36.995Z,99326.44
2017-06-29T03:41:05.331Z,99329.02
2017-06-29T03:43:33.689Z,99322.33
2017-06-29T03:46:02.353Z,99325.56
2017-06-29T03:48:30.702Z,99323.02
2017-06-29T03:50:59.048Z,99314.61
2017-06-29T03:53:28.042Z,99317.98
2017-06-29T03:55:56.359Z,99329.86
2017-06-29T03:58:24.699Z,99331.38
2017-06-29T04:00:53.349Z,99326.58
2017-06-29T04:03:21.700Z,99327.00
2017-06-29T04:05:50.027Z,99332.98
2017-06-29T04:08:18.818Z,99340.38
2017-06-29T04:10:47.139Z,99344.55
2017-06-29T04:13:15.481Z,99345.48
2017-06-29T04:15:44.357Z,99341.28
2017-06-29T04:18:12.706Z,99345.00
2017-06-29T04:20:41.041Z,99344.82
2017-06-29T04:23:09.830Z,99337.60
2017-06-29T04:25:38.159Z,99340.30
2017-06-29T04:28:06.504Z,99340.02
2017-06-29T04:30:35.213Z,99341.83
2017-06-29T04:33:03.614Z,99342.14
2017-06-29T04:35:31.960Z,99341.73
2017-06-29T04:38:01.085Z,99350.00
2017-06-29T04:40:29.476Z,99346.66
2017-06-29T04:42:58.569Z,99345.39
2017-06-29T04:45:27.298Z,99335.25
2017-06-29T04:47:55.711Z,99341.01
2017-06-29T04:50:24.125Z,99337.23
2017-06-29T04:52:52.865Z,99335.78
2017-06-29T04:55:21.286Z,99336.77
2017-06-29T04:57:49.662Z,99337.57
2017-06-29T05:00:18.625Z,99338.30
2017-06-29T05:02:47.019Z,99332.17
2017-06-29T05:05:15.457Z,99328.19
2017-06-29T05:07:44.366Z,99326.98
2017-06-29T05:10:12.715Z,99322.56
2017-06-29T05:12:41.059Z,99315.39
2017-06-29T05:15:09.890Z,99308.20
2017-06-29T05:17:38.265Z,99296.77
2017-06-29T05:20:06.633Z,99290.30
2017-06-29T05:22:36.249Z,99294.70
2017-06-29T05:25:04.698Z,99295.00
2017-06-29T05:27:33.177Z,99286.00
2017-06-29T05:30:02.173Z,99285.42
2017-06-29T05:32:30.766Z,99277.36
2017-06-29T05:34:59.226Z,99282.00
2017-06-29T05:37:28.075Z,99282.11
2017-06-29T05:39:56.469Z,99273.09
2017-06-29T05:42:24.804Z,99274.05
2017-06-29T05:44:53.838Z,99278.20
2017-06-29T05:47:22.172Z,99281.33
2017-06-29T05:49:51.279Z,99280.47
2017-06-29T05:52:20.889Z,99269.96
2017-06-29T05:54:49.228Z,99268.84
2017-06-29T05:57:17.583Z,99263.14
2017-06-29T05:59:46.347Z,99262.32
2017-06-29T06:02:14.687Z,99265.68
2017-06-29T06:04:43.035Z,99267.74
2017-06-29T06:07:11.972Z,99263.28
2017-06-29T06:09:40.315Z,99268.20
2017-06-29T06:12:08.661Z,99275.72
2017-06-29T06:14:37.420Z,99271.41
2017-06-29T06:17:05.769Z,99264.34
2017-06-29T06:19:34.164Z,99270.55
2017-06-29T06:22:03.105Z,99272.98
2017-06-29T06:24:31.446Z,99276.02
2017-06-29T06:26:59.803Z,99270.95
2017-06-29T06:29:28.650Z,99267.66
2017-06-29T06:31:56.997Z,99269.13
2017-06-29T06:34:25.379Z,99274.32
2017-06-29T06:36:54.767Z,99271.55
2017-06-29T06:39:23.088Z,99274.95
2017-06-29T06:41:51.420Z,99280.89
2017-06-29T06:44:20.042Z,99277.20
2017-06-29T06:46:48.390Z,99276.25
2017-06-29T06:49:16.744Z,99279.47
2017-06-29T06:51:45.971Z,99277.53
2017-06-29T06:54:14.296Z,99277.16
2017-06-29T06:56:42.634Z,99283.08
2017-06-29T06:59:11.270Z,99291.88
2017-06-29T07:01:39.618Z,99288.62
2017-06-29T07:04:07.996Z,99296.16
2017-06-29T07:06:36.784Z,99296.37
2017-06-29T07:09:05.142Z,99298.40
2017-06-29T07:11:34.261Z,99303.09
2017-06-29T07:14:03.254Z,99308.33
2017-06-29T07:16:31.642Z,99311.79
2017-06-29T07:19:00.022Z,99316.42
2017-06-29T07:21:28.675Z,99312.35
2017-06-29T07:23:57.054Z,99316.83
2017-06-29T07:26:26.194Z,99323.08
2017-06-29T07:28:54.810Z,99319.05
2017-06-29T07:31:23.158Z,99323.50
2017-06-29T07:33:51.490Z,99319.65
2017-06-29T07:36:20.380Z,99317.22
2017-06-29T07:38:48.724Z,99309.69
2017-06-29T07:41:17.053Z,99321.69
2017-06-29T07:43:46.497Z,99326.28
2017-06-29T07:46:14.915Z,99324.64
2017-06-29T07:48:43.307Z,99328.55
2017-06-29T07:51:12.936Z,99330.97
2017-06-29T07:53:41.283Z,99330.40
2017-06-29T07:56:09.635Z,99330.41
2017-06-29T07:58:38.490Z,99329.72
2017-06-29T08:01:06.830Z,99322.90
2017-06-29T08:03:35.174Z,99321.33
2017-06-29T08:06:04.011Z,99318.44
2017-06-29T08:08:32.350Z,99317.27
2017-06-29T08:11:00.677Z,99321.70
2017-06-29T08:13:29.345Z,99319.02
2017-06-29T08:15:57.698Z,99315.83
2017-06-29T08:18:26.048Z,99322.83
2017-06-29T08:20:55.316Z,99330.03
2017-06-29T08:23:23.691Z,99333.95
2017-06-29T08:25:52.036Z,99333.58
2017-06-29T08:28:20.683Z,99337.97
2017-06-29T08:30:49.057Z,99334.81
2017-06-29T08:33:17.389Z,99334.48
2017-06-29T08:35:46.236Z,99330.95
2017-06-29T08:38:14.576Z,99321.30
2017-06-29T08:40:42.916Z,99326.10
2017-06-29T08:43:11.848Z,99318.65
2017-06-29T08:45:40.257Z,99324.88
2017-06-29T08:48:08.605Z,99316.32
2017-06-29T08:50:37.509Z,99318.47
2017-06-29T08:53:05.861Z,99318.30
2017-06-29T08:55:34.223Z,99317.59
2017-06-29T08:58:02.837Z,99321.10
2017-06-29T09:00:31.183Z,99311.59
2017-06-29T09:02:59.547Z,99314.34
2017-06-29T09:05:28.262Z,99305.97
2017-06-29T09:07:56.642Z,99307.05
2017-06-29T09:10:25.025Z,99302.02
2017-06-29T09:12:53.870Z,99306.25
2017-06-29T09:15:22.248Z,99311.00
2017-06-29T09:17:50.598Z,99317.84
2017-06-29T09:20:19.231Z,99319.27
2017-06-29T09:22:47.565Z,99324.88
2017-06-29T09:25:15.938Z,99328.10
2017-06-29T09:27:45.208Z,99328.93
2017-06-29T09:30:13.577Z,99334.09
2017-06-29T09:32:42.234Z,99341.91
2017-06-29T09:35:10.980Z,99336.23
2017-06-29T09:37:39.367Z,99337.16
2017-06-29T09:40:07.725Z,99338.20
2017-06-29T09:42:36.683Z,99336.23
2017-06-29T09:45:05.033Z,99333.70
2017-06-29T09:47:34.198Z,99326.30
2017-06-29T09:50:03.006Z,99329.44
2017-06-29T09:52:31.393Z,99323.76
2017-06-29T09:54:59.746Z,99316.52
2017-06-29T09:57:28.699Z,99317.84
2017-06-29T09:59:57.103Z,99316.41
2017-06-29T10:02:25.466Z,99314.09
2017-06-29T10:04:54.132Z,99314.94
2017-06-29T10:07:22.490Z,99322.92
2017-06-29T10:09:50.837Z,99315.92
2017-06-29T10:12:19.893Z,99317.52
2017-06-29T10:14:48.272Z,99310.48
2017-06-29T10:17:16.633Z,99313.08
2017-06-29T10:19:45.337Z,99309.50
2017-06-29T10:22:13.686Z,99305.34
2017-06-29T10:24:42.137Z,99309.13
2017-06-29T10:27:10.846Z,99310.20
2017-06-29T10:29:39.296Z,99306.64
2017-06-29T10:32:07.690Z,99304.99
2017-06-29T10:34:37.049Z,99300.95
2017-06-29T10:37:05.418Z,99300.39
2017-06-29T10:39:33.849Z,99301.30
2017-06-29T10:42:02.718Z,99298.88
2017-06-29T10:44:31.066Z,99297.79
2017-06-29T10:46:59.416Z,99294.75
2017-06-29T10:49:28.400Z,99299.37
2017-06-29T10:51:56.744Z,99295.94
2017-06-29T10:54:25.101Z,99298.19
2017-06-29T10:56:54.231Z,99299.97
2017-06-29T10:59:22.589Z,99298.17
2017-06-29T11:01:51.009Z,99298.19
2017-06-29T11:04:19.686Z,99296.75
2017-06-29T11:06:48.027Z,99301.05
2017-06-29T11:09:16.387Z,99291.22
2017-06-29T11:11:45.287Z,99294.40
2017-06-29T11:14:13.637Z,99287.84
2017-06-29T11:16:41.955Z,99294.73
2017-06-29T11:19:11.349Z,99297.45
2017-06-29T11:21:39.729Z,99292.67
2017-06-29T11:24:08.086Z,99303.38
2017-06-29T11:26:36.736Z,99299.85
2017-06-29T11:29:05.066Z,99308.34
2017-06-29T11:31:33.523Z,99295.55
2017-06-29T11:34:02.547Z,99295.18
2017-06-29T11:36:30.895Z,99298.42
2017-06-29T11:38:59.239Z,99299.05
2017-06-29T11:41:27.915Z,99292.25
2017-06-29T11:43:56.276Z,99294.28
2017-06-29T11:46:24.617Z,99303.09
2017-06-29T11:48:53.407Z,99296.95
2017-06-29T11:51:22.530Z,99294.66
2017-06-29T11:53:50.887Z,99297.05
2017-06-29T11:56:19.554Z,99295.27
2017-06-29T11:58:47.893Z,99297.08
2017-06-29T12:01:16.211Z,99294.42
2017-06-29T12:03:45.043Z,99294.20
2017-06-29T12:06:13.359Z,99288.97
2017-06-29T12:08:41.702Z,99287.02
2017-06-29T12:11:10.316Z,99283.59
2017-06-29T12:13:38.680Z,99289.21
2017-06-29T12:16:07.032Z,99288.91
2017-06-29T12:18:35.730Z,99284.67
2017-06-29T12:21:04.079Z,99287.73
2017-06-29T12:23:32.421Z,99293.72
2017-06-29T12:26:01.381Z,99286.77
2017-06-29T12:28:29.722Z,99275.69
2017-06-29T12:30:58.074Z,99277.31
2017-06-29T12:33:26.836Z,99281.34
2017-06-29T12:35:55.166Z,99276.59
2017-06-29T12:38:23.530Z,99266.81
2017-06-29T12:40:52.209Z,99267.00
2017-06-29T12:43:20.552Z,99275.84
2017-06-29T12:45:48.894Z,99275.18
2017-06-29T12:48:17.921Z,99274.31
2017-06-29T12:50:46.263Z,99279.06
2017-06-29T12:53:14.598Z,99274.38
2017-06-29T12:55:43.219Z,99268.91
2017-06-29T12:58:11.595Z,99265.27
2017-06-29T13:00:39.942Z,99261.50
2017-06-29T13:03:08.814Z,99267.17
2017-06-29T13:05:37.150Z,99263.09
2017-06-29T13:08:05.505Z,99259.33
2017-06-29T13:10:34.346Z,99261.30
2017-06-29T13:13:03.451Z,99266.73
2017-06-29T13:15:31.831Z,99266.67
2017-06-29T13:18:00.478Z,99269.06
2017-06-29T13:20:28.826Z,99262.62
2017-06-29T13:25:31.943Z,99269.09
2017-06-29T13:28:00.274Z,99267.77
2017-06-29T13:30:28.634Z,99267.70
2017-06-29T13:32:57.418Z,99270.06
2017-06-29T13:35:25.793Z,99267.76
2017-06-29T13:37:54.132Z,99263.48
2017-06-29T13:40:22.994Z,99266.87
2017-06-29T13:42:51.336Z,99270.81
2017-06-29T13:45:19.648Z,99265.52
2017-06-29T13:47:48.457Z,99262.80
2017-06-29T13:50:16.790Z,99269.33
2017-06-29T13:52:45.157Z,99269.47
2017-06-29T13:55:14.301Z,99260.80
2017-06-29T13:57:42.642Z,99264.66
2017-06-29T14:00:10.995Z,99264.09
2017-06-29T14:02:39.737Z,99260.42
2017-06-29T14:05:08.105Z,99264.09
2017-06-29T14:07:36.437Z,99255.34
2017-06-29T14:10:05.223Z,99261.78
2017-06-29T14:12:33.577Z,99258.67
2017-06-29T14:15:01.901Z,99266.04
2017-06-29T14:17:30.975Z,99258.70
2017-06-29T14:19:59.332Z,99268.69
2017-06-29T14:22:27.694Z,99267.42
2017-06-29T14:24:56.352Z,99260.66
2017-06-29T14:27:24.714Z,99260.14
2017-06-29T14:29:53.043Z,99257.45
2017-06-29T14:32:21.652Z,99258.95
2017-06-29T14:34:49.993Z,99255.97
2017-06-29T14:37:18.339Z,99258.30
2017-06-29T14:39:47.167Z,99256.56
2017-06-29T14:42:15.523Z,99266.70
2017-06-29T14:44:43.889Z,99263.73
2017-06-29T14:47:12.639Z,99258.38
2017-06-29T14:49:40.988Z,99256.61
2017-06-29T14:52:09.336Z,99267.85
2017-06-29T14:54:37.975Z,99260.19
2017-06-29T14:57:06.329Z,99269.13
2017-06-29T14:59:34.660Z,99268.41
2017-06-29T15:02:03.442Z,99274.49
2017-06-29T15:04:31.794Z,99268.83
2017-06-29T15:07:00.153Z,99267.92
2017-06-29T15:09:28.824Z,99267.05
2017-06-29T15:11:57.182Z,99272.74
2017-06-29T15:14:25.520Z,99266.48
2017-06-29T15:16:54.186Z,99271.60
2017-06-29T15:19:22.539Z,99263.64
2017-06-29T15:21:50.880Z,99271.23
2017-06-29T15:24:20.084Z,99263.33
2017-06-29T15:26:48.433Z,99263.10
2017-06-29T15:29:16.778Z,99262.00
2017-06-29T15:31:45.422Z,99258.23
2017-06-29T15:34:13.797Z,99269.87
2017-06-29T15:36:42.183Z,99269.95
2017-06-29T15:39:11.163Z,99274.44
2017-06-29T15:41:39.491Z,99274.05
2017-06-29T15:44:07.855Z,99277.66
2017-06-29T15:46:37.198Z,99282.98
2017-06-29T15:49:05.579Z,99283.50
2017-06-29T15:51:34.707Z,99281.22
2017-06-29T15:54:03.369Z,99290.53
2017-06-29T15:56:31.734Z,99288.34
2017-06-29T15:59:00.058Z,99288.94
2017-06-29T16:01:28.944Z,99296.57
2017-06-29T16:03:57.298Z,99294.30
2017-06-29T16:06:25.649Z,99288.34
2017-06-29T16:08:54.521Z,99288.45
2017-06-29T16:11:22.894Z,99295.03
2017-06-29T16:13:51.246Z,99289.34
2017-06-29T16:16:20.007Z,99298.55
2017-06-29T16:18:48.376Z,99297.47
2017-06-29T16:21:17.490Z,99296.97
2017-06-29T16:23:46.098Z,99298.20
2017-06-29T16:26:14.476Z,99306.18
2017-06-29T16:28:42.829Z,99293.98
2017-06-29T16:31:11.623Z,99298.36
2017-06-29T16:33:39.966Z,99305.92
2017-06-29T16:36:08.342Z,99312.51
2017-06-29T16:38:37.005Z,99323.17
2017-06-29T16:41:05.362Z,99308.16
2017-06-29T16:43:33.707Z,99318.80
2017-06-29T16:46:02.362Z,99316.36
2017-06-29T16:48:30.751Z,99311.03
2017-06-29T16:50:59.130Z,99311.35
2017-06-29T16:53:28.088Z,99316.68
2017-06-29T16:55:56.452Z,99311.41
2017-06-29T16:58:24.874Z,99306.22
2017-06-29T17:00:53.718Z,99303.58
2017-06-29T17:03:22.071Z,99314.25
2017-06-29T17:05:51.232Z,99323.70
2017-06-29T17:08:19.976Z,99333.77
2017-06-29T17:10:48.323Z,99331.58
2017-06-29T17:13:16.680Z,99333.45
2017-06-29T17:15:45.812Z,99341.06
2017-06-29T17:18:14.145Z,99333.08
2017-06-29T17:20:42.482Z,99334.84
2017-06-29T17:23:11.135Z,99342.18
2017-06-29T17:25:39.498Z,99349.77
2017-06-29T17:28:07.903Z,99356.77
2017-06-29T17:30:36.602Z,99363.56
2017-06-29T17:33:05.722Z,99359.38
2017-06-29T17:35:34.066Z,99359.30
2017-06-29T17:38:02.986Z,99360.45
2017-06-29T17:40:31.324Z,99360.34
2017-06-29T17:42:59.682Z,99360.37
2017-06-29T17:45:28.349Z,99366.94
2017-06-29T17:47:56.698Z,99365.61
2017-06-29T17:50:25.040Z,99369.15
2017-06-29T17:52:53.803Z,99363.95
2017-06-29T17:55:22.163Z,99359.81
2017-06-29T17:57:50.499Z,99362.69
2017-06-29T18:00:20.106Z,99364.41
2017-06-29T18:02:48.451Z,99365.58
2017-06-29T18:05:16.798Z,99379.38
2017-06-29T18:07:45.586Z,99376.80
2017-06-29T18:10:13.977Z,99378.16
2017-06-29T18:12:42.349Z,99380.14
2017-06-29T18:15:11.055Z,99373.28
2017-06-29T18:17:39.454Z,99389.39
2017-06-29T18:20:07.801Z,99381.30
2017-06-29T18:22:36.776Z,99370.57
2017-06-29T18:25:05.116Z,99366.73
2017-06-29T18:27:33.462Z,99377.36
2017-06-29T18:30:02.110Z,99376.39
2017-06-29T18:32:30.462Z,99383.02
2017-06-29T18:34:58.798Z,99400.14
2017-06-29T18:37:27.550Z,99394.89
2017-06-29T18:39:55.936Z,99388.96
2017-06-29T18:42:25.124Z,99390.48
2017-06-29T18:44:53.866Z,99391.30
2017-06-29T18:47:22.210Z,99401.94
2017-06-29T18:49:50.558Z,99417.66
2017-06-29T18:52:19.241Z,99401.38
2017-06-29T18:54:47.651Z,99400.00
2017-06-29T18:57:16.749Z,99403.72
2017-06-29T18:59:45.549Z,99411.73
2017-06-29T19:02:13.953Z,99407.45
2017-06-29T19:04:42.310Z,99404.08
2017-06-29T19:07:11.204Z,99401.72
2017-06-29T19:09:39.578Z,99407.25
2017-06-29T19:12:07.931Z,99406.83
2017-06-29T19:14:36.601Z,99415.25
2017-06-29T19:17:04.940Z,99415.73
2017-06-29T19:19:33.281Z,99422.94
2017-06-29T19:22:02.919Z,99422.97
2017-06-29T19:24:31.296Z,99432.89
2017-06-29T19:26:59.656Z,99426.99
2017-06-29T19:29:28.567Z,99432.36
2017-06-29T19:31:56.923Z,99430.86
2017-06-29T19:34:26.051Z,99431.36
2017-06-29T19:36:54.671Z,99438.14
2017-06-29T19:39:23.028Z,99438.81
2017-06-29T19:41:51.431Z,99445.15
2017-06-29T19:44:20.128Z,99442.89
2017-06-29T19:46:48.471Z,99445.28
2017-06-29T19:49:16.881Z,99445.58
2017-06-29T19:51:45.730Z,99449.00
2017-06-29T19:54:14.073Z,99443.06
2017-06-29T19:56:43.169Z,99452.45
2017-06-29T19:59:12.533Z,99450.34
2017-06-29T20:01:40.863Z,99451.84
2017-06-29T20:04:09.234Z,99457.75
2017-06-29T20:06:37.848Z,99450.70
2017-06-29T20:09:06.196Z,99454.88
2017-06-29T20:11:35.298Z,99455.02
2017-06-29T20:14:04.241Z,99451.48
2017-06-29T20:16:32.643Z,99448.05
2017-06-29T20:19:01.002Z,99457.17
2017-06-29T20:21:29.757Z,99459.37
2017-06-29T20:23:58.172Z,99462.93
2017-06-29T20:26:26.583Z,99465.53
2017-06-29T20:30:13.620Z,99458.80
2017-06-29T20:32:41.972Z,99464.98
2017-06-29T20:35:10.309Z,99462.75
2017-06-29T20:37:39.064Z,99459.19
2017-06-29T20:40:07.409Z,99455.47
2017-06-29T20:42:35.758Z,99451.34
2017-06-29T20:45:04.411Z,99455.42
2017-06-29T20:47:33.506Z,99461.48
2017-06-29T20:50:02.611Z,99458.47
2017-06-29T20:52:31.454Z,99451.44
2017-06-29T20:54:59.814Z,99458.66
2017-06-29T20:57:28.160Z,99455.69
2017-06-29T20:59:56.785Z,99451.81
2017-06-29T21:02:25.108Z,99457.41
2017-06-29T21:04:53.453Z,99462.41
2017-06-29T21:07:22.187Z,99454.93
2017-06-29T21:09:50.547Z,99460.05
2017-06-29T21:12:18.925Z,99452.72
2017-06-29T21:14:48.506Z,99459.23
2017-06-29T21:17:16.870Z,99457.45
2017-06-29T21:19:45.230Z,99460.27
2017-06-29T21:22:13.864Z,99455.76
2017-06-29T21:24:42.212Z,99451.05
2017-06-29T21:27:11.262Z,99452.97
2017-06-29T21:29:40.261Z,99443.16
2017-06-29T21:32:08.631Z,99443.85
2017-06-29T21:34:37.737Z,99441.73
2017-06-29T21:37:06.594Z,99440.35
2017-06-29T21:39:35.282Z,99439.23
2017-06-29T21:42:03.649Z,99437.58
2017-06-29T21:44:32.288Z,99436.92
2017-06-29T21:47:00.637Z,99429.23
2017-06-29T21:49:28.992Z,99424.51
2017-06-29T21:51:57.604Z,99424.34
2017-06-29T21:54:25.932Z,99429.78
2017-06-29T21:56:54.264Z,99426.98
2017-06-29T21:59:23.649Z,99423.16
2017-06-29T22:01:51.968Z,99420.22
2017-06-29T22:04:20.329Z,99428.14
2017-06-29T22:06:49.114Z,99427.63
2017-06-29T22:09:17.458Z,99428.23
2017-06-29T22:11:45.796Z,99431.74
2017-06-29T22:14:14.429Z,99436.17
2017-06-29T22:16:42.786Z,99441.84
2017-06-29T22:19:11.141Z,99444.86
2017-06-29T22:21:40.154Z,99451.14
2017-06-29T22:24:08.484Z,99452.25
2017-06-29T22:26:36.828Z,99451.17
2017-06-29T22:29:05.667Z,99460.51
2017-06-29T22:31:34.026Z,99466.97
2017-06-29T22:34:02.404Z,99469.61
2017-06-29T22:36:31.144Z,99470.77
2017-06-29T22:38:59.492Z,99478.91
2017-06-29T22:41:27.818Z,99476.93
2017-06-29T22:43:56.577Z,99485.77
2017-06-29T22:46:25.135Z,99483.45
2017-06-29T22:48:54.258Z,99491.56
2017-06-29T22:51:23.251Z,99495.96
2017-06-29T22:53:51.617Z,99500.08
2017-06-29T22:56:19.975Z,99493.51
2017-06-29T22:58:48.599Z,99503.48
2017-06-29T23:01:16.954Z,99503.25
2017-06-29T23:03:45.314Z,99501.64
2017-06-29T23:06:14.850Z,99501.02
2017-06-29T23:08:43.237Z,99504.69
2017-06-29T23:11:11.574Z,99499.73
2017-06-29T23:13:40.311Z,99499.47
2017-06-29T23:16:08.646Z,99505.16
2017-06-29T23:18:36.984Z,99500.34
2017-06-29T23:21:05.836Z,99508.06
2017-06-29T23:23:34.154Z,99505.63
2017-06-29T23:26:02.478Z,99502.11
2017-06-29T23:28:31.222Z,99505.46
2017-06-29T23:30:59.540Z,99504.48
2017-06-29T23:33:27.876Z,99502.66
2017-06-29T23:35:56.572Z,99504.30
2017-06-29T23:38:24.910Z,99503.42
2017-06-29T23:40:53.491Z,99502.47
2017-06-29T23:43:22.148Z,99511.91
2017-06-29T23:45:50.507Z,99516.19
2017-06-29T23:48:18.829Z,99518.77
2017-06-29T23:50:47.658Z,99525.06
2017-06-29T23:53:15.991Z,99533.81
2017-06-29T23:55:44.327Z,99527.95
2017-06-29T23:58:13.002Z,99533.91
